Time;durP1;ratioP1;P1;durP2;ratioP2;P2;SDS_P1;SDS_P2;PMS_P1;PMS_P2;Temp;Humidity;BMP_temperature;BMP_pressure;BME280_temperature;BME280_humidity;BME280_pressure;Samples;Min_cycle;Max_cycle;Signal;HPM_P1;HPM_P2
2024/01/01 00:00:47;;;;;;;7.82;3.35;;;;;;;3.65;100.00;94681.69;4999299;28;20244;-71
2024/01/01 00:03:14;;;;;;;3.67;3.05;;;;;;;3.69;100.00;94682.72;5001249;28;20198;-73
2024/01/01 00:05:41;;;;;;;7.20;4.10;;;;;;;3.72;100.00;94676.78;4999176;28;20662;-71
2024/01/01 00:08:09;;;;;;;3.92;3.60;;;;;;;3.75;100.00;94676.22;4999584;28;20208;-71
2024/01/01 00:10:39;;;;;;;3.38;3.08;;;;;;;3.74;100.00;94663.91;4999582;28;20205;-72
2024/01/01 00:13:06;;;;;;;2.92;2.67;;;;;;;3.75;100.00;94655.59;5008990;28;20237;-72
2024/01/01 00:15:36;;;;;;;11.07;4.45;;;;;;;3.81;100.00;94664.38;5002454;28;20213;-70
2024/01/01 00:18:03;;;;;;;3.53;2.55;;;;;;;3.83;100.00;94668.34;5010717;28;20609;-72
2024/01/01 00:20:30;;;;;;;3.67;3.38;;;;;;;3.86;100.00;94673.13;5010276;28;20255;-73
2024/01/01 00:22:57;;;;;;;2.28;2.03;;;;;;;3.88;100.00;94676.34;5009793;28;20208;-73
2024/01/01 00:25:26;;;;;;;5.22;4.22;;;;;;;4.00;100.00;94673.25;5014906;28;20211;-73
2024/01/01 00:27:52;;;;;;;10.48;5.07;;;;;;;3.90;100.00;94681.41;5014856;28;20204;-72
2024/01/01 00:30:19;;;;;;;7.85;2.78;;;;;;;4.01;100.00;94687.47;5014947;28;20209;-72
2024/01/01 00:32:46;;;;;;;4.30;3.67;;;;;;;4.09;100.00;94689.53;5014804;28;20232;-72
2024/01/01 00:35:13;;;;;;;5.40;4.95;;;;;;;4.13;100.00;94671.78;5014067;28;20211;-72
2024/01/01 00:37:40;;;;;;;7.00;4.95;;;;;;;3.96;100.00;94669.56;5014165;28;20569;-72
2024/01/01 00:40:08;;;;;;;2.72;2.53;;;;;;;3.97;100.00;94681.88;5013857;28;20208;-71
2024/01/01 00:42:38;;;;;;;10.75;5.88;;;;;;;3.88;100.00;94680.91;5015362;28;20249;-71
2024/01/01 00:45:05;;;;;;;3.88;2.72;;;;;;;3.99;100.00;94684.25;5008472;28;20549;-71
2024/01/01 00:47:32;;;;;;;5.18;4.30;;;;;;;3.91;100.00;94688.38;5013949;28;20215;-70
2024/01/01 00:50:00;;;;;;;4.38;3.75;;;;;;;3.92;100.00;94681.94;5013571;28;20219;-70
2024/01/01 00:52:27;;;;;;;4.57;4.25;;;;;;;3.80;100.00;94684.22;5014084;28;20220;-70
2024/01/01 00:54:53;;;;;;;3.80;3.47;;;;;;;3.83;100.00;94683.63;5013852;28;20205;-69
2024/01/01 00:57:20;;;;;;;1.23;1.17;;;;;;;3.94;100.00;94674.41;5005468;28;20249;-70
2024/01/01 00:59:48;;;;;;;5.95;4.88;;;;;;;3.73;100.00;94684.53;4993607;28;20624;-70
2024/01/01 01:02:15;;;;;;;3.65;3.40;;;;;;;3.77;100.00;94679.41;5003220;28;20581;-69
2024/01/01 01:04:45;;;;;;;2.33;2.05;;;;;;;3.78;100.00;94681.81;5013883;28;20659;-73
2024/01/01 01:07:12;;;;;;;3.20;3.00;;;;;;;3.56;100.00;94684.94;5013415;28;20631;-71
2024/01/01 01:09:39;;;;;;;2.58;2.30;;;;;;;3.71;100.00;94664.47;5013299;28;20559;-71
2024/01/01 01:12:06;;;;;;;0.85;0.85;;;;;;;3.51;100.00;94671.63;5013808;28;20241;-72
2024/01/01 01:14:33;;;;;;;2.08;1.85;;;;;;;3.49;100.00;94673.78;5014044;28;20216;-72
2024/01/01 01:17:02;;;;;;;6.38;5.13;;;;;;;3.66;100.00;94665.31;5013894;28;20216;-72
2024/01/01 01:19:28;;;;;;;2.40;2.30;;;;;;;3.63;100.00;94657.06;5013848;28;20221;-71
2024/01/01 01:21:55;;;;;;;3.63;2.97;;;;;;;3.65;100.00;94649.53;5013325;28;20209;-70
2024/01/01 01:24:22;;;;;;;4.32;3.42;;;;;;;3.77;100.00;94655.31;5013792;28;20208;-71
2024/01/01 01:26:49;;;;;;;3.80;2.42;;;;;;;3.62;100.00;94645.53;5013812;28;20204;-70
2024/01/01 01:29:17;;;;;;;3.60;2.20;;;;;;;3.52;100.00;94646.44;5013838;28;20692;-70
2024/01/01 01:31:46;;;;;;;4.28;3.88;;;;;;;3.65;100.00;94649.53;5013543;28;20303;-70
2024/01/01 01:34:14;;;;;;;4.53;4.22;;;;;;;3.83;100.00;94651.47;5012515;28;20209;-71
2024/01/01 01:36:41;;;;;;;11.05;4.30;;;;;;;3.87;100.00;94641.78;5012759;28;20292;-71
2024/01/01 01:39:09;;;;;;;3.67;3.33;;;;;;;3.91;100.00;94642.81;5009749;28;20208;-70
2024/01/01 01:41:38;;;;;;;1.65;1.55;;;;;;;3.70;100.00;94647.59;5001646;28;20227;-70
2024/01/01 01:44:05;;;;;;;45.88;18.15;;;;;;;3.79;100.00;94642.44;5001947;28;20197;-70
2024/01/01 01:46:32;;;;;;;40.63;19.52;;;;;;;3.72;100.00;94639.28;5002673;28;20205;-73
2024/01/01 01:48:59;;;;;;;42.25;19.95;;;;;;;3.67;100.00;94636.66;5002833;28;20206;-72
2024/01/01 01:51:27;;;;;;;43.30;18.17;;;;;;;3.62;100.00;94639.38;4999090;28;20205;-72
2024/01/01 01:53:55;;;;;;;42.65;19.38;;;;;;;3.68;100.00;94643.63;5001325;28;20613;-71
2024/01/01 01:56:22;;;;;;;27.17;13.63;;;;;;;3.72;100.00;94639.28;5004824;28;20727;-72
2024/01/01 01:58:49;;;;;;;37.10;15.55;;;;;;;3.83;100.00;94635.41;4997896;28;20247;-74
2024/01/01 02:01:17;;;;;;;32.92;14.57;;;;;;;3.88;100.00;94636.16;5001718;28;20205;-71
2024/01/01 02:03:45;;;;;;;30.45;14.55;;;;;;;3.95;100.00;94638.50;4998906;28;20205;-71
2024/01/01 02:06:12;;;;;;;32.72;16.10;;;;;;;3.81;100.00;94645.63;5002378;28;20256;-70
2024/01/01 02:08:40;;;;;;;4.70;2.08;;;;;;;3.85;100.00;94638.59;5001696;28;20197;-70
2024/01/01 02:11:07;;;;;;;2.45;2.35;;;;;;;3.47;100.00;94638.44;5006023;28;20228;-72
2024/01/01 02:13:34;;;;;;;0.88;0.88;;;;;;;3.71;100.00;94637.66;5002752;28;20224;-71
2024/01/01 02:16:01;;;;;;;1.27;1.20;;;;;;;3.84;100.00;94639.69;5004881;28;20198;-72
2024/01/01 02:18:28;;;;;;;2.75;2.45;;;;;;;3.88;100.00;94640.72;5003007;28;20248;-70
2024/01/01 02:20:55;;;;;;;1.27;1.17;;;;;;;3.78;100.00;94638.16;5000785;28;20205;-71
2024/01/01 02:23:24;;;;;;;3.45;2.78;;;;;;;3.85;100.00;94649.31;5004850;28;20193;-71
2024/01/01 02:25:51;;;;;;;3.63;2.63;;;;;;;3.81;100.00;94656.34;5000646;28;20687;-71
2024/01/01 02:28:19;;;;;;;3.28;2.15;;;;;;;3.69;100.00;94661.28;4998545;28;20213;-71
2024/01/01 02:30:46;;;;;;;2.05;1.85;;;;;;;3.67;100.00;94663.44;5000519;28;20236;-71
2024/01/01 02:33:14;;;;;;;31.33;12.77;;;;;;;3.69;100.00;94667.41;5001559;28;20225;-72
2024/01/01 02:35:41;;;;;;;30.02;14.45;;;;;;;3.64;100.00;94664.81;5005163;28;20587;-71
2024/01/01 02:38:07;;;;;;;33.58;14.15;;;;;;;3.58;100.00;94666.72;5000237;28;20688;-73
2024/01/01 02:40:36;;;;;;;33.40;14.30;;;;;;;3.52;100.00;94661.72;5003333;28;20257;-71
2024/01/01 02:43:04;;;;;;;28.95;13.18;;;;;;;3.50;100.00;94655.84;5003342;28;20237;-71
2024/01/01 02:45:33;;;;;;;30.35;13.27;;;;;;;3.55;100.00;94661.94;4999556;28;20245;-71
2024/01/01 02:48:00;;;;;;;26.42;13.10;;;;;;;3.47;100.00;94665.22;5001258;28;20201;-70
2024/01/01 02:50:29;;;;;;;0.95;0.90;;;;;;;3.43;100.00;94653.47;5000827;28;20221;-70
2024/01/01 02:52:56;;;;;;;0.77;0.77;;;;;;;3.47;100.00;94649.16;5002158;28;20224;-70
2024/01/01 02:55:22;;;;;;;0.75;0.75;;;;;;;3.46;100.00;94650.25;5000949;28;20221;-70
2024/01/01 02:57:51;;;;;;;1.27;1.08;;;;;;;3.15;100.00;94643.56;5001986;28;20694;-70
2024/01/01 03:00:18;;;;;;;22.92;9.93;;;;;;;3.04;100.00;94644.72;5001714;28;20205;-71
2024/01/01 03:02:44;;;;;;;28.10;13.82;;;;;;;3.17;100.00;94644.06;5000205;28;20561;-70
2024/01/01 03:05:11;;;;;;;31.20;13.63;;;;;;;3.22;100.00;94630.66;5000878;28;20209;-69
2024/01/01 03:07:38;;;;;;;23.90;11.15;;;;;;;3.12;100.00;94625.41;5000944;28;20201;-68
2024/01/01 03:10:06;;;;;;;1.42;1.35;;;;;;;3.29;100.00;94625.75;5001807;28;20216;-69
2024/01/01 03:12:33;;;;;;;1.15;1.10;;;;;;;3.32;100.00;94624.41;5000003;28;20649;-69
2024/01/01 03:15:03;;;;;;;1.33;1.23;;;;;;;3.29;100.00;94616.94;4999558;28;20206;-69
2024/01/01 03:17:30;;;;;;;3.38;1.15;;;;;;;3.39;100.00;94614.97;4997509;28;20205;-69
2024/01/01 03:19:57;;;;;;;1.27;1.27;;;;;;;3.43;100.00;94616.00;5005131;28;20205;-71
2024/01/01 03:22:23;;;;;;;1.27;1.27;;;;;;;3.41;100.00;94602.13;5001215;28;20625;-71
2024/01/01 03:24:50;;;;;;;1.35;1.35;;;;;;;3.39;100.00;94598.91;4997697;28;20229;-70
2024/01/01 03:27:17;;;;;;;4.28;3.85;;;;;;;3.28;100.00;94600.06;5000530;28;20255;-69
2024/01/01 03:29:44;;;;;;;1.67;1.58;;;;;;;3.32;100.00;94595.75;5001267;28;20678;-68
2024/01/01 03:32:12;;;;;;;2.30;2.10;;;;;;;3.23;100.00;94594.78;5002373;28;20569;-70
2024/01/01 03:34:39;;;;;;;2.42;2.22;;;;;;;3.29;100.00;94596.31;5001036;28;20229;-69
2024/01/01 03:37:06;;;;;;;5.50;2.85;;;;;;;3.37;100.00;94586.88;5000312;28;20201;-70
2024/01/01 03:39:33;;;;;;;1.42;0.93;;;;;;;3.39;100.00;94593.56;5001894;28;20463;-69
2024/01/01 03:42:00;;;;;;;4.78;3.30;;;;;;;3.54;100.00;94590.72;5001848;28;20212;-72
2024/01/01 03:44:27;;;;;;;1.13;0.93;;;;;;;3.48;100.00;94588.38;4997508;28;20559;-70
2024/01/01 03:46:53;;;;;;;1.88;1.33;;;;;;;3.52;100.00;94582.19;4999686;28;20208;-70
2024/01/01 03:49:22;;;;;;;1.58;1.52;;;;;;;3.50;100.00;94584.34;4999545;28;20617;-69
2024/01/01 03:51:49;;;;;;;1.65;1.55;;;;;;;3.30;100.00;94573.81;4998444;28;20209;-71
2024/01/01 03:54:15;;;;;;;3.28;1.23;;;;;;;3.32;100.00;94582.38;5001730;28;20566;-70
2024/01/01 03:56:42;;;;;;;2.47;2.00;;;;;;;3.38;100.00;94586.63;5000632;28;20237;-71
2024/01/01 03:59:09;;;;;;;1.73;1.63;;;;;;;2.98;100.00;94587.78;4999901;28;20201;-71
2024/01/01 04:01:36;;;;;;;15.30;2.90;;;;;;;2.88;100.00;94587.06;4997871;28;20293;-70
2024/01/01 04:04:04;;;;;;;1.48;1.38;;;;;;;3.09;100.00;94585.81;5001304;28;20548;-70
2024/01/01 04:06:33;;;;;;;23.83;10.27;;;;;;;2.83;100.00;94580.69;5000676;28;20218;-70
2024/01/01 04:09:00;;;;;;;20.92;12.18;;;;;;;2.83;100.00;94586.03;5000481;28;20252;-72
2024/01/01 04:11:26;;;;;;;32.55;13.30;;;;;;;3.02;100.00;94588.00;5000189;28;20208;-71
2024/01/01 04:13:53;;;;;;;24.60;12.60;;;;;;;2.91;100.00;94591.84;4999655;28;20224;-70
2024/01/01 04:16:20;;;;;;;30.83;13.23;;;;;;;2.88;100.00;94589.72;5000063;28;20213;-71
2024/01/01 04:18:47;;;;;;;24.95;12.45;;;;;;;2.90;100.00;94582.22;4999659;28;20209;-70
2024/01/01 04:21:14;;;;;;;29.17;13.20;;;;;;;2.91;100.00;94589.19;4998549;28;20578;-70
2024/01/01 04:23:42;;;;;;;4.60;2.40;;;;;;;3.00;100.00;94587.50;5000400;28;20510;-70
2024/01/01 04:26:08;;;;;;;4.65;2.05;;;;;;;2.94;100.00;94592.09;5002036;28;20201;-69
2024/01/01 04:28:35;;;;;;;28.08;12.57;;;;;;;3.05;100.00;94598.16;4998926;28;20267;-70
2024/01/01 04:31:02;;;;;;;4.88;3.03;;;;;;;3.08;100.00;94602.94;4998836;28;20201;-71
2024/01/01 04:33:29;;;;;;;1.30;1.20;;;;;;;2.94;100.00;94607.34;4999775;28;20239;-70
2024/01/01 04:35:56;;;;;;;3.30;1.38;;;;;;;2.85;100.00;94599.94;5000490;28;20287;-70
2024/01/01 04:38:22;;;;;;;1.23;1.17;;;;;;;2.96;100.00;94591.81;4998445;28;20213;-70
2024/01/01 04:40:51;;;;;;;4.25;3.05;;;;;;;3.08;100.00;94589.56;5001202;28;20219;-70
2024/01/01 04:43:17;;;;;;;1.85;1.23;;;;;;;3.18;100.00;94592.16;5004316;28;20228;-71
2024/01/01 04:45:44;;;;;;;4.72;2.80;;;;;;;3.02;100.00;94590.69;4999979;28;20218;-71
2024/01/01 04:48:11;;;;;;;1.75;1.60;;;;;;;3.24;100.00;94582.19;4999015;28;20568;-70
2024/01/01 04:50:38;;;;;;;3.45;2.00;;;;;;;3.31;100.00;94586.13;5003678;28;20553;-70
2024/01/01 04:53:05;;;;;;;3.35;1.50;;;;;;;3.32;100.00;94585.06;5002188;28;20225;-72
2024/01/01 04:55:32;;;;;;;4.95;2.38;;;;;;;3.34;100.00;94580.22;5005030;28;20672;-71
2024/01/01 04:58:00;;;;;;;3.92;1.92;;;;;;;3.38;100.00;94583.94;5001633;28;20237;-71
2024/01/01 05:00:27;;;;;;;0.70;0.70;;;;;;;3.12;100.00;94583.38;4997959;28;20197;-70
2024/01/01 05:02:56;;;;;;;1.38;1.27;;;;;;;3.00;100.00;94587.50;5000321;28;20628;-71
2024/01/01 05:05:22;;;;;;;1.48;1.38;;;;;;;3.14;100.00;94585.78;4999842;28;20206;-70
2024/01/01 05:07:50;;;;;;;4.32;2.03;;;;;;;3.15;100.00;94584.69;5001791;28;20586;-70
2024/01/01 05:10:17;;;;;;;1.55;1.45;;;;;;;3.18;100.00;94590.28;5003281;28;20206;-70
2024/01/01 05:12:44;;;;;;;2.72;1.40;;;;;;;3.15;100.00;94592.72;5002073;28;20655;-71
2024/01/01 05:15:13;;;;;;;0.40;0.40;;;;;;;3.20;100.00;94584.63;5005979;28;20229;-71
2024/01/01 05:17:40;;;;;;;0.70;0.70;;;;;;;3.28;100.00;94578.66;5006009;28;20744;-71
2024/01/01 05:20:08;;;;;;;1.42;1.33;;;;;;;3.21;100.00;94583.56;5003690;28;20673;-70
2024/01/01 05:22:35;;;;;;;0.65;0.65;;;;;;;2.88;100.00;94581.72;5006502;28;20208;-71
2024/01/01 05:25:02;;;;;;;1.95;1.85;;;;;;;2.76;100.00;94577.53;5002091;28;20202;-70
2024/01/01 05:27:29;;;;;;;2.85;2.05;;;;;;;2.85;100.00;94573.19;5003817;28;20300;-71
2024/01/01 05:29:57;;;;;;;18.50;9.52;;;;;;;3.18;100.00;94576.09;5003908;28;20220;-70
2024/01/01 05:32:25;;;;;;;18.55;9.63;;;;;;;3.24;100.00;94571.50;5003025;28;20209;-69
2024/01/01 05:34:52;;;;;;;18.95;8.95;;;;;;;3.38;100.00;94570.56;5003162;28;20229;-70
2024/01/01 05:37:19;;;;;;;21.13;10.10;;;;;;;3.39;100.00;94556.09;5004215;28;20210;-70
2024/01/01 05:39:45;;;;;;;17.20;8.63;;;;;;;2.90;100.00;94558.16;5005229;28;20210;-69
2024/01/01 05:42:12;;;;;;;5.07;3.47;;;;;;;2.79;100.00;94563.59;5007665;28;20201;-69
2024/01/01 05:44:39;;;;;;;2.05;1.63;;;;;;;2.81;100.00;94566.00;5003449;28;20201;-69
2024/01/01 05:47:06;;;;;;;3.80;3.50;;;;;;;2.81;100.00;94568.66;5000071;28;20202;-70
2024/01/01 05:49:34;;;;;;;4.13;1.88;;;;;;;2.62;100.00;94563.19;5001346;28;20205;-69
2024/01/01 05:52:02;;;;;;;0.60;0.60;;;;;;;2.91;100.00;94565.09;5006256;28;20201;-71
2024/01/01 05:54:29;;;;;;;0.88;0.88;;;;;;;2.83;100.00;94564.63;5007586;28;20588;-71
2024/01/01 05:56:56;;;;;;;5.43;2.05;;;;;;;2.90;100.00;94569.66;5003005;28;20317;-69
2024/01/01 05:59:23;;;;;;;0.82;0.82;;;;;;;3.00;100.00;94566.13;5004340;28;20768;-70
2024/01/01 06:01:50;;;;;;;0.95;0.60;;;;;;;3.07;100.00;94574.59;5002057;28;20206;-69
2024/01/01 06:04:16;;;;;;;1.77;1.67;;;;;;;3.07;100.00;94569.25;5003106;28;20213;-71
2024/01/01 06:06:45;;;;;;;0.47;0.47;;;;;;;2.98;100.00;94571.75;5009704;28;20255;-70
2024/01/01 06:09:12;;;;;;;4.78;1.23;;;;;;;3.08;100.00;94576.19;5006908;28;20655;-71
2024/01/01 06:11:38;;;;;;;3.47;1.23;;;;;;;2.84;100.00;94568.91;5002298;28;20209;-71
2024/01/01 06:14:05;;;;;;;1.55;1.50;;;;;;;2.89;100.00;94572.59;5005755;28;20228;-71
2024/01/01 06:16:32;;;;;;;0.50;0.50;;;;;;;2.89;100.00;94565.38;5005258;28;20208;-69
2024/01/01 06:18:59;;;;;;;0.75;0.75;;;;;;;3.09;100.00;94561.75;5005627;28;20205;-72
2024/01/01 06:21:26;;;;;;;4.60;1.23;;;;;;;3.34;100.00;94558.81;5003999;28;20216;-72
2024/01/01 06:23:55;;;;;;;1.30;1.23;;;;;;;3.73;100.00;94560.50;5005297;28;20213;-70
2024/01/01 06:26:21;;;;;;;2.10;1.90;;;;;;;4.16;100.00;94559.44;5002514;28;20231;-71
2024/01/01 06:28:48;;;;;;;3.50;2.78;;;;;;;4.14;100.00;94550.88;5004149;28;20225;-70
2024/01/01 06:31:15;;;;;;;21.40;9.95;;;;;;;4.12;100.00;94554.91;5003058;28;20212;-69
2024/01/01 06:33:42;;;;;;;20.58;8.95;;;;;;;3.96;100.00;94549.00;5003943;28;20229;-72
2024/01/01 06:36:10;;;;;;;22.15;10.27;;;;;;;3.87;100.00;94556.06;5003524;28;20246;-71
2024/01/01 06:38:37;;;;;;;18.35;10.20;;;;;;;4.01;100.00;94556.16;5002621;28;20259;-71
2024/01/01 06:41:06;;;;;;;21.15;9.38;;;;;;;4.16;100.00;94559.44;5005944;28;20209;-71
2024/01/01 06:43:33;;;;;;;24.10;8.98;;;;;;;3.90;100.00;94550.13;4999540;28;20240;-72
2024/01/01 06:46:00;;;;;;;15.23;8.88;;;;;;;4.12;100.00;94554.91;5006336;28;20733;-73
2024/01/01 06:48:27;;;;;;;16.42;8.25;;;;;;;4.18;100.00;94546.53;5001659;28;20213;-72
2024/01/01 06:50:55;;;;;;;15.75;8.95;;;;;;;3.99;100.00;94532.31;5005182;28;20213;-72
2024/01/01 06:53:22;;;;;;;0.77;0.77;;;;;;;3.80;100.00;94536.88;5005149;28;20205;-71
2024/01/01 06:55:49;;;;;;;3.22;1.63;;;;;;;3.80;100.00;94518.13;5003772;28;20233;-71
2024/01/01 06:58:17;;;;;;;1.70;1.60;;;;;;;3.89;100.00;94538.63;5003312;28;20587;-72
2024/01/01 07:00:44;;;;;;;1.60;0.82;;;;;;;3.66;100.00;94544.81;5005665;28;20205;-72
2024/01/01 07:03:11;;;;;;;0.65;0.65;;;;;;;4.27;100.00;94539.44;5006355;28;20300;-71
2024/01/01 07:05:37;;;;;;;2.28;1.38;;;;;;;5.12;100.00;94534.88;5007803;28;20216;-70
2024/01/01 07:08:05;;;;;;;1.05;1.05;;;;;;;4.19;100.00;94548.13;5000022;28;20210;-71
2024/01/01 07:10:32;;;;;;;3.58;1.95;;;;;;;4.97;100.00;94541.31;5001274;28;20201;-72
2024/01/01 07:12:58;;;;;;;8.05;3.25;;;;;;;6.55;100.00;94530.94;5000004;28;20574;-72
2024/01/01 07:15:27;;;;;;;2.72;2.22;;;;;;;5.79;98.06;94524.47;5002218;28;20582;-71
2024/01/01 07:17:54;;;;;;;0.47;0.47;;;;;;;5.09;98.94;94538.94;5002191;28;20209;-73
2024/01/01 07:20:22;;;;;;;1.27;1.27;;;;;;;4.79;100.00;94540.25;5002539;28;20205;-71
2024/01/01 07:22:49;;;;;;;1.60;1.50;;;;;;;4.38;100.00;94541.97;5002103;28;20255;-72
2024/01/01 07:25:16;;;;;;;1.95;1.60;;;;;;;4.33;100.00;94547.41;5003353;28;20201;-72
2024/01/01 07:27:43;;;;;;;2.28;1.70;;;;;;;4.65;100.00;94536.72;5002490;28;20284;-72
2024/01/01 07:30:10;;;;;;;1.20;1.20;;;;;;;4.90;100.00;94536.31;5001170;28;20209;-71
2024/01/01 07:32:39;;;;;;;1.08;1.05;;;;;;;4.98;100.00;94543.69;5003462;28;20205;-71
2024/01/01 07:35:08;;;;;;;0.85;0.85;;;;;;;5.29;100.00;94543.97;5002759;28;20741;-72
2024/01/01 07:37:35;;;;;;;1.33;1.25;;;;;;;5.44;98.67;94540.22;5001968;28;20292;-73
2024/01/01 07:40:02;;;;;;;0.80;0.80;;;;;;;5.53;100.00;94548.38;5001711;28;20201;-73
2024/01/01 07:42:28;;;;;;;3.85;2.78;;;;;;;6.07;97.64;94547.56;5001601;28;20658;-74
2024/01/01 07:44:55;;;;;;;1.85;1.33;;;;;;;5.81;94.94;94544.59;5003849;28;20741;-71
2024/01/01 07:47:22;;;;;;;0.73;0.73;;;;;;;6.01;95.08;94554.19;5003924;28;20244;-71
2024/01/01 07:49:50;;;;;;;4.90;0.95;;;;;;;6.00;94.31;94552.59;5006674;28;20213;-70
2024/01/01 07:52:20;;;;;;;1.45;1.38;;;;;;;5.90;94.12;94552.75;5000007;28;20209;-72
2024/01/01 07:54:47;;;;;;;3.05;1.48;;;;;;;5.72;94.93;94555.25;5004383;28;20300;-71
2024/01/01 07:57:14;;;;;;;1.33;1.23;;;;;;;5.97;96.21;94545.09;5002716;28;20268;-71
2024/01/01 07:59:41;;;;;;;0.77;0.77;;;;;;;5.90;95.85;94550.06;4998621;28;20577;-72
2024/01/01 08:02:08;;;;;;;0.80;0.80;;;;;;;5.77;96.03;94569.66;5005996;28;20256;-73
2024/01/01 08:04:35;;;;;;;3.33;1.80;;;;;;;5.69;96.93;94558.53;5000119;28;20209;-71
2024/01/01 08:07:03;;;;;;;0.40;0.40;;;;;;;5.91;97.51;94559.72;5000351;28;20624;-71
2024/01/01 08:09:30;;;;;;;0.30;0.30;;;;;;;5.99;95.93;94567.13;5003797;28;20216;-72
2024/01/01 08:11:57;;;;;;;2.22;0.85;;;;;;;5.66;96.93;94561.81;5000090;28;20204;-71
2024/01/01 08:14:24;;;;;;;1.90;1.23;;;;;;;6.31;96.26;94558.88;4997368;28;20229;-71
2024/01/01 08:16:51;;;;;;;0.70;0.70;;;;;;;6.13;96.13;94564.41;4997046;28;20208;-71
2024/01/01 08:19:17;;;;;;;1.45;1.35;;;;;;;6.27;95.12;94552.53;4995109;28;20219;-72
2024/01/01 08:21:44;;;;;;;0.35;0.35;;;;;;;6.41;95.36;94541.75;4996412;28;20221;-72
2024/01/01 08:24:13;;;;;;;0.90;0.90;;;;;;;6.50;95.51;94544.50;5001166;28;20520;-72
2024/01/01 08:26:39;;;;;;;4.13;1.73;;;;;;;6.98;93.84;94539.31;5002724;28;20225;-71
2024/01/01 08:29:06;;;;;;;1.30;1.20;;;;;;;7.32;93.43;94541.44;5004174;28;20209;-72
2024/01/01 08:31:33;;;;;;;4.15;1.25;;;;;;;7.30;91.71;94547.13;5002096;28;20671;-70
2024/01/01 08:34:00;;;;;;;1.95;1.80;;;;;;;7.55;90.95;94542.97;4999062;28;20210;-72
2024/01/01 08:36:27;;;;;;;3.60;1.67;;;;;;;7.40;90.34;94546.06;5003791;28;20585;-73
2024/01/01 08:38:54;;;;;;;0.73;0.73;;;;;;;7.30;90.96;94546.34;4994953;28;20212;-72
2024/01/01 08:41:23;;;;;;;0.80;0.80;;;;;;;7.19;90.57;94550.41;5003739;28;20216;-72
2024/01/01 08:43:56;;;;;;;1.45;1.40;;;;;;;7.44;92.66;94563.22;4996123;28;20201;-72
2024/01/01 08:46:24;;;;;;;3.72;2.75;;;;;;;6.91;91.65;94566.69;5003524;28;20194;-72
2024/01/01 08:48:51;;;;;;;2.75;2.22;;;;;;;6.78;92.48;94567.53;5003456;28;20291;-72
2024/01/01 08:51:18;;;;;;;4.10;1.75;;;;;;;6.42;93.01;94565.63;5008128;28;20232;-74
2024/01/01 08:53:45;;;;;;;1.73;1.63;;;;;;;6.14;95.55;94558.75;5005730;28;20617;-71
2024/01/01 08:56:12;;;;;;;2.05;1.65;;;;;;;6.29;95.58;94555.69;5004611;28;20225;-72
2024/01/01 08:58:41;;;;;;;4.68;2.30;;;;;;;6.70;94.63;94558.28;5006895;28;20241;-70
2024/01/01 09:01:07;;;;;;;2.60;1.33;;;;;;;6.97;93.64;94554.69;5003296;28;20205;-73
2024/01/01 09:03:34;;;;;;;1.30;1.20;;;;;;;7.37;92.08;94544.00;5001379;28;20670;-70
2024/01/01 09:06:01;;;;;;;2.95;2.55;;;;;;;7.68;91.20;94541.28;5006227;28;20205;-71
2024/01/01 09:08:29;;;;;;;3.15;1.98;;;;;;;7.87;89.59;94549.94;5002974;28;20220;-73
2024/01/01 09:10:56;;;;;;;1.77;1.67;;;;;;;8.00;88.80;94532.03;4998638;28;20209;-73
2024/01/01 09:13:23;;;;;;;4.35;2.70;;;;;;;8.11;89.93;94525.25;5001591;28;20205;-72
2024/01/01 09:15:52;;;;;;;2.10;1.90;;;;;;;7.98;87.47;94524.25;4998573;28;20229;-72
2024/01/01 09:18:19;;;;;;;1.15;1.05;;;;;;;7.67;88.56;94524.31;4997855;28;20517;-71
2024/01/01 09:20:46;;;;;;;5.45;3.40;;;;;;;7.91;88.11;94512.34;5002676;28;20201;-70
2024/01/01 09:23:13;;;;;;;1.13;1.08;;;;;;;7.76;89.22;94505.47;5008866;28;20205;-70
2024/01/01 09:25:40;;;;;;;2.15;1.85;;;;;;;8.09;88.74;94522.06;5013527;28;20315;-71
2024/01/01 09:28:07;;;;;;;3.92;1.13;;;;;;;7.72;87.77;94518.78;5010803;28;20632;-71
2024/01/01 09:30:34;;;;;;;1.08;0.95;;;;;;;7.80;88.17;94511.81;5000886;28;20213;-71
2024/01/01 09:33:02;;;;;;;2.90;2.13;;;;;;;7.31;89.03;94500.22;5009595;28;20252;-70
2024/01/01 09:35:29;;;;;;;2.10;1.38;;;;;;;7.47;89.42;94498.72;5013069;28;20243;-70
2024/01/01 09:37:57;;;;;;;2.20;1.98;;;;;;;7.35;89.20;94500.41;5002130;28;20623;-71
2024/01/01 09:40:24;;;;;;;2.50;2.28;;;;;;;7.28;89.62;94494.66;5003745;28;20647;-72
2024/01/01 09:42:51;;;;;;;0.85;0.85;;;;;;;7.38;89.03;94483.63;5004453;28;20205;-72
2024/01/01 09:45:18;;;;;;;1.98;1.85;;;;;;;7.26;90.39;94488.78;5004584;28;20212;-72
2024/01/01 09:47:45;;;;;;;1.48;1.23;;;;;;;7.77;90.05;94486.31;5007071;28;20209;-69
2024/01/01 09:50:14;;;;;;;2.55;2.38;;;;;;;7.57;88.75;94476.06;5000245;28;20251;-72
2024/01/01 09:52:40;;;;;;;0.90;0.90;;;;;;;7.19;90.55;94491.13;5003682;28;20201;-70
2024/01/01 09:55:08;;;;;;;3.45;1.88;;;;;;;6.95;91.70;94489.59;5007355;28;20229;-70
2024/01/01 09:57:35;;;;;;;2.88;2.25;;;;;;;7.01;92.48;94496.41;5005124;28;20280;-69
2024/01/01 10:00:05;;;;;;;1.08;1.05;;;;;;;7.47;92.07;94497.94;5003524;28;20202;-69
2024/01/01 10:02:32;;;;;;;5.88;2.40;;;;;;;7.69;90.02;94481.66;5001717;28;20291;-70
2024/01/01 10:05:11;;;;;;;0.90;0.90;;;;;;;8.23;88.88;94487.66;5003891;28;20708;-71
2024/01/01 10:07:40;;;;;;;0.98;0.98;;;;;;;8.42;88.00;94490.88;5007210;28;20278;-71
2024/01/01 10:10:07;;;;;;;3.03;1.35;;;;;;;8.67;86.59;94480.38;5008159;28;20205;-69
2024/01/01 10:12:34;;;;;;;7.78;1.92;;;;;;;8.92;85.47;94460.66;5000978;28;20590;-71
2024/01/01 10:15:01;;;;;;;0.40;0.40;;;;;;;9.21;84.31;94460.75;5003333;28;20568;-70
2024/01/01 10:17:28;;;;;;;2.05;1.83;;;;;;;9.47;83.25;94430.13;5005683;28;20205;-72
2024/01/01 10:19:57;;;;;;;1.13;1.00;;;;;;;9.27;81.87;94429.72;5007448;28;20208;-70
2024/01/01 10:22:29;;;;;;;1.67;1.58;;;;;;;8.86;83.96;94434.94;5005857;28;20613;-70
2024/01/01 10:25:11;;;;;;;6.07;1.30;;;;;;;8.67;83.79;94427.19;5010435;28;20201;-70
2024/01/01 10:27:38;;;;;;;2.22;1.20;;;;;;;9.26;83.30;94432.75;5000882;28;20300;-71
2024/01/01 10:30:08;;;;;;;1.65;1.55;;;;;;;9.62;81.88;94418.75;4999958;28;20581;-71
2024/01/01 10:32:36;;;;;;;2.83;1.98;;;;;;;9.53;81.63;94418.81;5003638;28;20202;-72
2024/01/01 10:35:04;;;;;;;12.48;6.55;;;;;;;9.59;81.37;94424.81;5000229;28;20216;-70
2024/01/01 10:37:32;;;;;;;1.92;1.83;;;;;;;10.04;80.69;94426.94;5003163;28;20216;-70
2024/01/01 10:40:05;;;;;;;1.60;1.35;;;;;;;10.01;79.89;94430.28;5002258;28;20557;-70
2024/01/01 10:42:34;;;;;;;1.30;0.95;;;;;;;9.87;80.10;94425.91;5005799;28;20201;-69
2024/01/01 10:45:03;;;;;;;1.83;1.73;;;;;;;9.98;79.28;94405.47;5000962;28;20259;-71
2024/01/01 10:47:30;;;;;;;3.10;2.45;;;;;;;9.90;79.45;94410.94;5002159;28;20655;-71
2024/01/01 10:50:08;;;;;;;2.00;1.80;;;;;;;9.55;81.04;94413.06;5003315;28;20217;-72
2024/01/01 10:52:56;;;;;;;3.72;1.30;;;;;;;9.13;82.27;94423.75;5002405;28;20220;-70
2024/01/01 10:55:44;;;;;;;5.38;3.45;;;;;;;9.59;81.92;94419.41;5001925;28;20236;-69
2024/01/01 10:58:24;;;;;;;0.85;0.82;;;;;;;9.42;82.72;94414.09;5003407;28;20252;-73
2024/01/01 11:01:04;;;;;;;4.38;1.52;;;;;;;9.94;80.30;94401.84;5003134;28;20217;-70
2024/01/01 11:03:32;;;;;;;0.28;0.28;;;;;;;10.12;80.77;94396.31;5003877;28;20208;-71
2024/01/01 11:05:59;;;;;;;1.88;1.67;;;;;;;10.44;79.12;94383.97;5003183;28;20201;-71
2024/01/01 11:08:27;;;;;;;5.78;3.05;;;;;;;10.57;78.77;94380.97;5001500;28;20624;-70
2024/01/01 11:10:56;;;;;;;1.13;1.02;;;;;;;10.60;77.88;94388.44;4994743;28;20202;-72
2024/01/01 11:13:54;;;;;;;3.25;0.82;;;;;;;10.58;77.95;94385.28;5000671;28;20685;-70
2024/01/01 11:16:21;;;;;;;3.40;1.55;;;;;;;9.96;80.00;94386.09;4997904;28;20727;-70
2024/01/01 11:18:49;;;;;;;10.05;4.57;;;;;;;9.57;82.29;94389.19;5002320;28;20563;-70
2024/01/01 11:21:32;;;;;;;7.32;4.18;;;;;;;10.04;81.88;94386.34;5001531;28;20300;-71
2024/01/01 11:24:01;;;;;;;7.07;4.72;;;;;;;10.11;80.46;94371.19;5005991;28;20629;-69
2024/01/01 11:26:36;;;;;;;8.88;3.40;;;;;;;10.03;80.80;94371.22;5004190;28;20677;-70
2024/01/01 11:29:05;;;;;;;1.45;1.15;;;;;;;10.08;80.97;94365.63;5000344;28;20794;-71
2024/01/01 11:31:33;;;;;;;1.20;1.20;;;;;;;9.65;81.90;94369.44;5000952;28;20230;-71
2024/01/01 11:34:01;;;;;;;0.63;0.50;;;;;;;9.54;82.60;94368.22;5001568;28;20210;-72
2024/01/01 11:36:28;;;;;;;9.23;4.60;;;;;;;9.43;83.13;94369.72;5007459;28;20225;-71